sensor_id;sensor_type;location;lat;lon;timestamp;temperature;humidity
32348;DHT22;18821;44.800;10.326;2023-03-01T00:01:19;5.30;1.00
32348;DHT22;18821;44.800;10.326;2023-03-01T00:03:45;5.30;1.00
32348;DHT22;18821;44.800;10.326;2023-03-01T00:06:12;5.30;1.00
32348;DHT22;18821;44.800;10.326;2023-03-01T00:08:38;5.20;1.00
32348;DHT22;18821;44.800;10.326;2023-03-01T00:11:12;5.20;1.00
32348;DHT22;18821;44.800;10.326;2023-03-01T00:13:39;5.10;1.00
32348;DHT22;18821;44.800;10.326;2023-03-01T00:16:07;5.10;1.00
32348;DHT22;18821;44.800;10.326;2023-03-01T00:18:33;5.10;1.00
32348;DHT22;18821;44.800;10.326;2023-03-01T00:20:59;5.10;1.00
32348;DHT22;18821;44.800;10.326;2023-03-01T00:23:26;5.10;1.00
32348;DHT22;18821;44.800;10.326;2023-03-01T00:25:53;5.10;1.00
32348;DHT22;18821;44.800;10.326;2023-03-01T00:28:19;5.10;1.00
32348;DHT22;18821;44.800;10.326;2023-03-01T00:30:45;5.10;1.00
32348;DHT22;18821;44.800;10.326;2023-03-01T00:33:12;5.10;1.00
32348;DHT22;18821;44.800;10.326;2023-03-01T00:35:39;5.10;1.00
32348;DHT22;18821;44.800;10.326;2023-03-01T00:38:05;5.10;99.90
32348;DHT22;18821;44.800;10.326;2023-03-01T00:40:33;5.10;99.90
32348;DHT22;18821;44.800;10.326;2023-03-01T00:43:00;5.10;99.90
32348;DHT22;18821;44.800;10.326;2023-03-01T00:45:27;5.00;99.90
32348;DHT22;18821;44.800;10.326;2023-03-01T00:47:53;5.00;99.90
32348;DHT22;18821;44.800;10.326;2023-03-01T00:50:20;5.00;99.90
32348;DHT22;18821;44.800;10.326;2023-03-01T00:52:46;5.00;99.90
32348;DHT22;18821;44.800;10.326;2023-03-01T00:55:12;4.90;99.90
32348;DHT22;18821;44.800;10.326;2023-03-01T00:57:39;5.00;99.90
32348;DHT22;18821;44.800;10.326;2023-03-01T01:00:06;5.00;99.90
32348;DHT22;18821;44.800;10.326;2023-03-01T01:02:33;5.00;99.90
32348;DHT22;18821;44.800;10.326;2023-03-01T01:05:00;5.00;99.90
32348;DHT22;18821;44.800;10.326;2023-03-01T01:07:26;4.90;99.90
32348;DHT22;18821;44.800;10.326;2023-03-01T01:09:52;4.90;99.90
32348;DHT22;18821;44.800;10.326;2023-03-01T01:12:18;4.90;99.90
32348;DHT22;18821;44.800;10.326;2023-03-01T01:14:44;4.90;1.00
32348;DHT22;18821;44.800;10.326;2023-03-01T01:17:10;4.90;1.00
32348;DHT22;18821;44.800;10.326;2023-03-01T01:19:36;4.80;99.90
32348;DHT22;18821;44.800;10.326;2023-03-01T01:22:03;4.80;1.00
32348;DHT22;18821;44.800;10.326;2023-03-01T01:24:29;4.90;1.00
32348;DHT22;18821;44.800;10.326;2023-03-01T01:26:55;4.90;1.00
32348;DHT22;18821;44.800;10.326;2023-03-01T01:29:21;4.90;99.90
32348;DHT22;18821;44.800;10.326;2023-03-01T01:31:48;4.90;99.90
32348;DHT22;18821;44.800;10.326;2023-03-01T01:34:16;4.90;99.90
32348;DHT22;18821;44.800;10.326;2023-03-01T01:36:43;4.90;1.00
32348;DHT22;18821;44.800;10.326;2023-03-01T01:39:09;4.90;99.90
32348;DHT22;18821;44.800;10.326;2023-03-01T01:41:40;4.90;99.90
32348;DHT22;18821;44.800;10.326;2023-03-01T01:44:22;4.90;1.00
32348;DHT22;18821;44.800;10.326;2023-03-01T01:46:57;5.00;99.90
32348;DHT22;18821;44.800;10.326;2023-03-01T01:52:18;4.90;99.90
32348;DHT22;18821;44.800;10.326;2023-03-01T01:55:00;5.00;99.90
32348;DHT22;18821;44.800;10.326;2023-03-01T01:57:34;5.00;99.90
32348;DHT22;18821;44.800;10.326;2023-03-01T02:00:09;5.00;99.90
32348;DHT22;18821;44.800;10.326;2023-03-01T02:02:43;5.10;99.90
32348;DHT22;18821;44.800;10.326;2023-03-01T02:05:18;5.00;99.90
32348;DHT22;18821;44.800;10.326;2023-03-01T02:07:46;5.10;99.90
32348;DHT22;18821;44.800;10.326;2023-03-01T02:10:13;5.10;99.90
32348;DHT22;18821;44.800;10.326;2023-03-01T02:12:40;5.00;99.90
32348;DHT22;18821;44.800;10.326;2023-03-01T02:15:06;5.00;99.90
32348;DHT22;18821;44.800;10.326;2023-03-01T02:17:32;5.00;99.90
32348;DHT22;18821;44.800;10.326;2023-03-01T02:23:03;5.00;99.90
32348;DHT22;18821;44.800;10.326;2023-03-01T02:25:58;4.90;99.90
32348;DHT22;18821;44.800;10.326;2023-03-01T02:28:38;4.90;99.90
32348;DHT22;18821;44.800;10.326;2023-03-01T02:31:06;4.90;99.90
32348;DHT22;18821;44.800;10.326;2023-03-01T02:33:53;4.90;1.00
32348;DHT22;18821;44.800;10.326;2023-03-01T02:36:22;4.90;99.90
32348;DHT22;18821;44.800;10.326;2023-03-01T02:38:51;4.80;1.00
32348;DHT22;18821;44.800;10.326;2023-03-01T02:41:19;4.90;1.00
32348;DHT22;18821;44.800;10.326;2023-03-01T02:43:46;4.80;1.00
32348;DHT22;18821;44.800;10.326;2023-03-01T02:46:21;4.90;1.00
32348;DHT22;18821;44.800;10.326;2023-03-01T02:48:51;4.80;1.00
32348;DHT22;18821;44.800;10.326;2023-03-01T02:55:00;4.80;1.00
32348;DHT22;18821;44.800;10.326;2023-03-01T02:56:54;4.80;1.00
32348;DHT22;18821;44.800;10.326;2023-03-01T02:59:24;4.70;1.00
32348;DHT22;18821;44.800;10.326;2023-03-01T03:01:53;4.70;1.00
32348;DHT22;18821;44.800;10.326;2023-03-01T03:04:19;4.70;1.00
32348;DHT22;18821;44.800;10.326;2023-03-01T03:06:50;4.70;1.00
32348;DHT22;18821;44.800;10.326;2023-03-01T03:09:16;4.70;1.00
32348;DHT22;18821;44.800;10.326;2023-03-01T03:11:43;4.70;1.00
32348;DHT22;18821;44.800;10.326;2023-03-01T03:14:11;4.70;1.00
32348;DHT22;18821;44.800;10.326;2023-03-01T03:16:46;4.70;1.00
32348;DHT22;18821;44.800;10.326;2023-03-01T03:19:12;4.70;1.00
32348;DHT22;18821;44.800;10.326;2023-03-01T03:21:38;4.80;1.00
32348;DHT22;18821;44.800;10.326;2023-03-01T03:24:05;4.90;1.00
32348;DHT22;18821;44.800;10.326;2023-03-01T03:26:31;4.90;1.00
32348;DHT22;18821;44.800;10.326;2023-03-01T03:28:57;5.00;1.00
32348;DHT22;18821;44.800;10.326;2023-03-01T03:31:23;5.00;1.00
32348;DHT22;18821;44.800;10.326;2023-03-01T03:33:49;5.00;1.00
32348;DHT22;18821;44.800;10.326;2023-03-01T03:36:17;5.00;1.00
32348;DHT22;18821;44.800;10.326;2023-03-01T03:38:44;5.10;1.00
32348;DHT22;18821;44.800;10.326;2023-03-01T03:41:11;5.10;1.00
32348;DHT22;18821;44.800;10.326;2023-03-01T03:43:39;5.10;1.00
32348;DHT22;18821;44.800;10.326;2023-03-01T03:46:06;5.10;1.00
32348;DHT22;18821;44.800;10.326;2023-03-01T03:48:41;5.00;1.00
32348;DHT22;18821;44.800;10.326;2023-03-01T03:51:13;5.00;1.00
32348;DHT22;18821;44.800;10.326;2023-03-01T03:53:41;5.00;1.00
32348;DHT22;18821;44.800;10.326;2023-03-01T03:56:07;5.00;1.00
32348;DHT22;18821;44.800;10.326;2023-03-01T03:58:33;5.00;1.00
32348;DHT22;18821;44.800;10.326;2023-03-01T04:01:00;5.00;1.00
32348;DHT22;18821;44.800;10.326;2023-03-01T04:03:29;5.00;1.00
32348;DHT22;18821;44.800;10.326;2023-03-01T04:06:00;5.00;1.00
32348;DHT22;18821;44.800;10.326;2023-03-01T04:08:27;5.10;1.00
32348;DHT22;18821;44.800;10.326;2023-03-01T04:10:59;5.10;1.00
32348;DHT22;18821;44.800;10.326;2023-03-01T04:13:26;5.10;99.90
32348;DHT22;18821;44.800;10.326;2023-03-01T04:15:53;5.20;99.90
32348;DHT22;18821;44.800;10.326;2023-03-01T04:18:22;5.20;99.90
32348;DHT22;18821;44.800;10.326;2023-03-01T04:20:48;5.20;99.90
32348;DHT22;18821;44.800;10.326;2023-03-01T04:23:17;5.20;99.90
32348;DHT22;18821;44.800;10.326;2023-03-01T04:25:55;5.20;99.90
32348;DHT22;18821;44.800;10.326;2023-03-01T04:28:29;5.20;99.90
32348;DHT22;18821;44.800;10.326;2023-03-01T04:30:57;5.30;99.90
32348;DHT22;18821;44.800;10.326;2023-03-01T04:33:24;5.30;99.90
32348;DHT22;18821;44.800;10.326;2023-03-01T04:35:50;5.20;99.90
32348;DHT22;18821;44.800;10.326;2023-03-01T04:38:17;5.10;99.90
32348;DHT22;18821;44.800;10.326;2023-03-01T04:40:43;5.10;99.90
32348;DHT22;18821;44.800;10.326;2023-03-01T04:43:10;5.00;99.90
32348;DHT22;18821;44.800;10.326;2023-03-01T04:45:37;5.00;99.90
32348;DHT22;18821;44.800;10.326;2023-03-01T04:48:03;5.00;99.90
32348;DHT22;18821;44.800;10.326;2023-03-01T04:50:30;5.10;99.90
32348;DHT22;18821;44.800;10.326;2023-03-01T04:52:56;5.10;99.90
32348;DHT22;18821;44.800;10.326;2023-03-01T04:55:27;5.10;99.90
32348;DHT22;18821;44.800;10.326;2023-03-01T04:57:53;5.10;99.90
32348;DHT22;18821;44.800;10.326;2023-03-01T05:00:20;5.10;99.90
32348;DHT22;18821;44.800;10.326;2023-03-01T05:02:53;5.10;99.90
32348;DHT22;18821;44.800;10.326;2023-03-01T05:05:41;5.10;99.90
32348;DHT22;18821;44.800;10.326;2023-03-01T05:08:07;5.10;99.90
32348;DHT22;18821;44.800;10.326;2023-03-01T05:10:35;5.10;99.90
32348;DHT22;18821;44.800;10.326;2023-03-01T05:13:03;5.20;99.90
32348;DHT22;18821;44.800;10.326;2023-03-01T05:15:31;5.20;99.90
32348;DHT22;18821;44.800;10.326;2023-03-01T05:17:58;5.20;99.90
32348;DHT22;18821;44.800;10.326;2023-03-01T05:20:26;5.10;1.00
32348;DHT22;18821;44.800;10.326;2023-03-01T05:22:55;4.90;1.00
32348;DHT22;18821;44.800;10.326;2023-03-01T05:25:21;4.70;1.00
32348;DHT22;18821;44.800;10.326;2023-03-01T05:27:48;4.70;1.00
32348;DHT22;18821;44.800;10.326;2023-03-01T05:30:14;4.60;1.00
32348;DHT22;18821;44.800;10.326;2023-03-01T05:32:45;4.70;1.00
32348;DHT22;18821;44.800;10.326;2023-03-01T05:35:16;4.70;1.00
32348;DHT22;18821;44.800;10.326;2023-03-01T05:37:44;4.70;1.00
32348;DHT22;18821;44.800;10.326;2023-03-01T05:40:13;4.70;1.00
32348;DHT22;18821;44.800;10.326;2023-03-01T05:42:43;4.70;1.00
32348;DHT22;18821;44.800;10.326;2023-03-01T05:45:09;4.60;1.00
32348;DHT22;18821;44.800;10.326;2023-03-01T05:47:35;4.60;1.00
32348;DHT22;18821;44.800;10.326;2023-03-01T05:50:02;4.70;1.00
32348;DHT22;18821;44.800;10.326;2023-03-01T05:52:28;4.70;1.00
32348;DHT22;18821;44.800;10.326;2023-03-01T05:54:55;4.70;1.00
32348;DHT22;18821;44.800;10.326;2023-03-01T05:57:21;4.80;1.00
32348;DHT22;18821;44.800;10.326;2023-03-01T05:59:47;4.80;1.00
32348;DHT22;18821;44.800;10.326;2023-03-01T06:02:14;4.80;1.00
32348;DHT22;18821;44.800;10.326;2023-03-01T06:04:40;4.70;1.00
32348;DHT22;18821;44.800;10.326;2023-03-01T06:07:06;4.50;1.00
32348;DHT22;18821;44.800;10.326;2023-03-01T06:09:32;4.50;1.00
32348;DHT22;18821;44.800;10.326;2023-03-01T06:11:57;4.40;1.00
32348;DHT22;18821;44.800;10.326;2023-03-01T06:14:24;4.50;1.00
32348;DHT22;18821;44.800;10.326;2023-03-01T06:16:50;4.50;1.00
32348;DHT22;18821;44.800;10.326;2023-03-01T06:19:16;4.50;1.00
32348;DHT22;18821;44.800;10.326;2023-03-01T06:21:42;4.40;1.00
32348;DHT22;18821;44.800;10.326;2023-03-01T06:24:07;4.50;1.00
32348;DHT22;18821;44.800;10.326;2023-03-01T06:26:34;4.60;1.00
32348;DHT22;18821;44.800;10.326;2023-03-01T06:28:59;4.80;1.00
32348;DHT22;18821;44.800;10.326;2023-03-01T06:31:25;4.80;1.00
32348;DHT22;18821;44.800;10.326;2023-03-01T06:33:51;4.90;1.00
32348;DHT22;18821;44.800;10.326;2023-03-01T06:36:17;5.00;1.00
32348;DHT22;18821;44.800;10.326;2023-03-01T06:38:46;5.10;1.00
32348;DHT22;18821;44.800;10.326;2023-03-01T06:41:12;5.10;1.00
32348;DHT22;18821;44.800;10.326;2023-03-01T06:43:38;5.20;1.00
32348;DHT22;18821;44.800;10.326;2023-03-01T06:46:05;5.30;1.00
32348;DHT22;18821;44.800;10.326;2023-03-01T06:48:33;5.30;1.00
32348;DHT22;18821;44.800;10.326;2023-03-01T06:51:01;5.30;1.00
32348;DHT22;18821;44.800;10.326;2023-03-01T06:53:28;5.30;1.00
32348;DHT22;18821;44.800;10.326;2023-03-01T06:55:55;5.40;1.00
32348;DHT22;18821;44.800;10.326;2023-03-01T06:58:22;5.40;1.00
32348;DHT22;18821;44.800;10.326;2023-03-01T07:00:48;5.50;1.00
32348;DHT22;18821;44.800;10.326;2023-03-01T07:03:14;5.60;1.00
32348;DHT22;18821;44.800;10.326;2023-03-01T07:05:40;5.60;1.00
32348;DHT22;18821;44.800;10.326;2023-03-01T07:08:07;5.90;1.00
32348;DHT22;18821;44.800;10.326;2023-03-01T07:10:34;5.90;1.00
32348;DHT22;18821;44.800;10.326;2023-03-01T07:13:00;5.80;1.00
32348;DHT22;18821;44.800;10.326;2023-03-01T07:15:27;5.80;1.00
32348;DHT22;18821;44.800;10.326;2023-03-01T07:17:53;5.70;1.00
32348;DHT22;18821;44.800;10.326;2023-03-01T07:20:20;5.80;1.00
32348;DHT22;18821;44.800;10.326;2023-03-01T07:22:54;6.00;1.00
32348;DHT22;18821;44.800;10.326;2023-03-01T07:25:21;6.20;1.00
32348;DHT22;18821;44.800;10.326;2023-03-01T07:27:53;6.30;99.90
32348;DHT22;18821;44.800;10.326;2023-03-01T07:30:20;6.50;99.90
32348;DHT22;18821;44.800;10.326;2023-03-01T07:32:47;6.70;99.90
32348;DHT22;18821;44.800;10.326;2023-03-01T07:35:13;6.70;99.90
32348;DHT22;18821;44.800;10.326;2023-03-01T07:37:40;6.70;99.90
32348;DHT22;18821;44.800;10.326;2023-03-01T07:40:07;6.90;99.90
32348;DHT22;18821;44.800;10.326;2023-03-01T07:42:33;7.00;99.90
32348;DHT22;18821;44.800;10.326;2023-03-01T07:44:59;7.00;99.90
32348;DHT22;18821;44.800;10.326;2023-03-01T07:47:25;7.20;99.90
32348;DHT22;18821;44.800;10.326;2023-03-01T07:49:51;7.30;99.90
32348;DHT22;18821;44.800;10.326;2023-03-01T07:52:17;7.30;99.90
32348;DHT22;18821;44.800;10.326;2023-03-01T07:54:43;7.30;1.00
32348;DHT22;18821;44.800;10.326;2023-03-01T07:57:10;7.20;1.00
32348;DHT22;18821;44.800;10.326;2023-03-01T07:59:36;7.00;1.00
32348;DHT22;18821;44.800;10.326;2023-03-01T08:02:02;6.70;1.00
32348;DHT22;18821;44.800;10.326;2023-03-01T08:04:28;6.70;1.00
32348;DHT22;18821;44.800;10.326;2023-03-01T08:06:55;6.60;1.00
32348;DHT22;18821;44.800;10.326;2023-03-01T08:09:21;6.60;1.00
32348;DHT22;18821;44.800;10.326;2023-03-01T08:11:47;6.60;1.00
32348;DHT22;18821;44.800;10.326;2023-03-01T08:14:13;6.60;1.00
32348;DHT22;18821;44.800;10.326;2023-03-01T08:16:39;6.60;1.00
32348;DHT22;18821;44.800;10.326;2023-03-01T08:19:10;6.70;1.00
32348;DHT22;18821;44.800;10.326;2023-03-01T08:21:37;6.70;1.00
32348;DHT22;18821;44.800;10.326;2023-03-01T08:24:05;6.70;1.00
32348;DHT22;18821;44.800;10.326;2023-03-01T08:26:32;6.70;1.00
32348;DHT22;18821;44.800;10.326;2023-03-01T08:28:59;6.70;1.00
32348;DHT22;18821;44.800;10.326;2023-03-01T08:31:35;6.70;1.00
32348;DHT22;18821;44.800;10.326;2023-03-01T08:34:04;6.60;1.00
32348;DHT22;18821;44.800;10.326;2023-03-01T08:36:37;6.60;1.00
32348;DHT22;18821;44.800;10.326;2023-03-01T08:39:04;6.50;1.00
32348;DHT22;18821;44.800;10.326;2023-03-01T08:41:31;6.50;1.00
32348;DHT22;18821;44.800;10.326;2023-03-01T08:43:58;6.50;1.00
32348;DHT22;18821;44.800;10.326;2023-03-01T08:46:28;6.50;1.00
32348;DHT22;18821;44.800;10.326;2023-03-01T08:48:55;6.50;1.00
32348;DHT22;18821;44.800;10.326;2023-03-01T08:51:21;6.50;1.00
32348;DHT22;18821;44.800;10.326;2023-03-01T08:53:48;6.50;1.00
32348;DHT22;18821;44.800;10.326;2023-03-01T08:56:15;6.50;1.00
32348;DHT22;18821;44.800;10.326;2023-03-01T08:58:44;6.50;1.00
32348;DHT22;18821;44.800;10.326;2023-03-01T09:01:12;6.50;1.00
32348;DHT22;18821;44.800;10.326;2023-03-01T09:03:38;6.40;1.00
32348;DHT22;18821;44.800;10.326;2023-03-01T09:06:06;6.40;1.00
32348;DHT22;18821;44.800;10.326;2023-03-01T09:08:38;6.40;1.00
32348;DHT22;18821;44.800;10.326;2023-03-01T09:11:06;6.50;1.00
32348;DHT22;18821;44.800;10.326;2023-03-01T09:13:32;6.50;1.00
32348;DHT22;18821;44.800;10.326;2023-03-01T09:16:02;6.50;1.00
32348;DHT22;18821;44.800;10.326;2023-03-01T09:18:28;6.50;1.00
32348;DHT22;18821;44.800;10.326;2023-03-01T09:21:09;6.60;1.00
32348;DHT22;18821;44.800;10.326;2023-03-01T09:23:37;6.70;1.00
32348;DHT22;18821;44.800;10.326;2023-03-01T09:26:09;6.70;1.00
32348;DHT22;18821;44.800;10.326;2023-03-01T09:28:36;6.80;1.00
32348;DHT22;18821;44.800;10.326;2023-03-01T09:31:07;6.80;1.00
32348;DHT22;18821;44.800;10.326;2023-03-01T09:33:34;6.80;1.00
32348;DHT22;18821;44.800;10.326;2023-03-01T09:36:06;6.70;1.00
32348;DHT22;18821;44.800;10.326;2023-03-01T09:38:33;6.70;1.00
32348;DHT22;18821;44.800;10.326;2023-03-01T09:41:02;6.70;1.00
32348;DHT22;18821;44.800;10.326;2023-03-01T09:43:44;6.60;1.00
32348;DHT22;18821;44.800;10.326;2023-03-01T09:46:13;6.50;1.00
32348;DHT22;18821;44.800;10.326;2023-03-01T09:48:46;6.50;1.00
32348;DHT22;18821;44.800;10.326;2023-03-01T09:51:30;6.50;1.00
32348;DHT22;18821;44.800;10.326;2023-03-01T09:53:57;6.50;1.00
32348;DHT22;18821;44.800;10.326;2023-03-01T09:56:44;6.60;1.00
32348;DHT22;18821;44.800;10.326;2023-03-01T09:59:25;6.80;1.00
32348;DHT22;18821;44.800;10.326;2023-03-01T10:02:35;6.90;1.00
32348;DHT22;18821;44.800;10.326;2023-03-01T10:10:35;6.90;1.00
32348;DHT22;18821;44.800;10.326;2023-03-01T10:13:10;7.00;1.00
32348;DHT22;18821;44.800;10.326;2023-03-01T10:15:44;7.10;1.00
32348;DHT22;18821;44.800;10.326;2023-03-01T10:18:18;7.20;1.00
32348;DHT22;18821;44.800;10.326;2023-03-01T10:21:30;7.20;1.00
32348;DHT22;18821;44.800;10.326;2023-03-01T10:23:32;7.00;1.00
32348;DHT22;18821;44.800;10.326;2023-03-01T10:29:14;7.20;1.00
32348;DHT22;18821;44.800;10.326;2023-03-01T10:34:27;7.50;1.00
32348;DHT22;18821;44.800;10.326;2023-03-01T10:36:57;7.50;1.00
32348;DHT22;18821;44.800;10.326;2023-03-01T10:39:27;7.40;1.00
32348;DHT22;18821;44.800;10.326;2023-03-01T10:42:00;7.40;1.00
32348;DHT22;18821;44.800;10.326;2023-03-01T10:44:45;7.60;1.00
32348;DHT22;18821;44.800;10.326;2023-03-01T10:47:31;7.70;99.90
32348;DHT22;18821;44.800;10.326;2023-03-01T10:50:19;7.70;99.90
32348;DHT22;18821;44.800;10.326;2023-03-01T10:52:58;7.80;99.90
32348;DHT22;18821;44.800;10.326;2023-03-01T10:55:35;7.70;99.90
32348;DHT22;18821;44.800;10.326;2023-03-01T11:00:47;7.70;99.90
32348;DHT22;18821;44.800;10.326;2023-03-01T11:03:18;7.70;99.90
32348;DHT22;18821;44.800;10.326;2023-03-01T11:06:19;7.60;99.90
32348;DHT22;18821;44.800;10.326;2023-03-01T11:08:48;7.70;99.90
32348;DHT22;18821;44.800;10.326;2023-03-01T11:11:30;7.70;99.90
32348;DHT22;18821;44.800;10.326;2023-03-01T11:14:04;7.80;99.90
32348;DHT22;18821;44.800;10.326;2023-03-01T11:16:34;7.70;99.90
32348;DHT22;18821;44.800;10.326;2023-03-01T11:21:59;7.70;99.90
32348;DHT22;18821;44.800;10.326;2023-03-01T11:24:46;7.70;99.90
32348;DHT22;18821;44.800;10.326;2023-03-01T11:27:18;7.80;99.90
32348;DHT22;18821;44.800;10.326;2023-03-01T11:30:02;7.70;99.90
32348;DHT22;18821;44.800;10.326;2023-03-01T11:32:38;7.70;99.90
32348;DHT22;18821;44.800;10.326;2023-03-01T11:35:18;7.60;99.90
32348;DHT22;18821;44.800;10.326;2023-03-01T11:40:27;7.50;99.90
32348;DHT22;18821;44.800;10.326;2023-03-01T11:43:04;7.40;99.90
32348;DHT22;18821;44.800;10.326;2023-03-01T11:50:55;7.40;1.00
32348;DHT22;18821;44.800;10.326;2023-03-01T11:53:51;7.40;1.00
32348;DHT22;18821;44.800;10.326;2023-03-01T11:56:34;7.30;1.00
32348;DHT22;18821;44.800;10.326;2023-03-01T11:59:20;7.20;1.00
32348;DHT22;18821;44.800;10.326;2023-03-01T12:12:15;6.90;1.00
32348;DHT22;18821;44.800;10.326;2023-03-01T12:34:34;6.40;1.00
32348;DHT22;18821;44.800;10.326;2023-03-01T12:37:29;6.40;1.00
32348;DHT22;18821;44.800;10.326;2023-03-01T12:51:23;6.40;1.00
32348;DHT22;18821;44.800;10.326;2023-03-01T12:53:51;6.40;1.00
32348;DHT22;18821;44.800;10.326;2023-03-01T12:56:24;6.30;1.00
32348;DHT22;18821;44.800;10.326;2023-03-01T13:01:36;6.30;1.00
32348;DHT22;18821;44.800;10.326;2023-03-01T13:07:16;6.20;1.00
32348;DHT22;18821;44.800;10.326;2023-03-01T13:10:26;6.10;1.00
32348;DHT22;18821;44.800;10.326;2023-03-01T13:18:03;5.90;1.00
32348;DHT22;18821;44.800;10.326;2023-03-01T13:20:46;5.90;1.00
32348;DHT22;18821;44.800;10.326;2023-03-01T13:26:12;5.80;1.00
32348;DHT22;18821;44.800;10.326;2023-03-01T13:28:47;5.80;5.10
32348;DHT22;18821;44.800;10.326;2023-03-01T13:39:03;5.60;8.30
32348;DHT22;18821;44.800;10.326;2023-03-01T13:44:37;5.70;12.30
32348;DHT22;18821;44.800;10.326;2023-03-01T13:47:14;5.60;11.30
32348;DHT22;18821;44.800;10.326;2023-03-01T13:57:44;5.70;23.40
32348;DHT22;18821;44.800;10.326;2023-03-01T14:05:28;5.70;28.90
32348;DHT22;18821;44.800;10.326;2023-03-01T14:07:54;5.70;29.10
32348;DHT22;18821;44.800;10.326;2023-03-01T14:10:21;5.80;27.90
32348;DHT22;18821;44.800;10.326;2023-03-01T14:13:20;5.80;28.40
32348;DHT22;18821;44.800;10.326;2023-03-01T14:16:09;5.80;29.30
32348;DHT22;18821;44.800;10.326;2023-03-01T14:19:04;5.80;29.00
32348;DHT22;18821;44.800;10.326;2023-03-01T14:21:31;5.80;29.30
32348;DHT22;18821;44.800;10.326;2023-03-01T14:23:58;5.80;29.90
32348;DHT22;18821;44.800;10.326;2023-03-01T14:26:24;5.80;28.50
32348;DHT22;18821;44.800;10.326;2023-03-01T14:28:51;5.70;24.80
32348;DHT22;18821;44.800;10.326;2023-03-01T14:31:43;5.70;27.60
32348;DHT22;18821;44.800;10.326;2023-03-01T14:34:23;5.70;25.70
32348;DHT22;18821;44.800;10.326;2023-03-01T14:36:49;5.60;22.30
32348;DHT22;18821;44.800;10.326;2023-03-01T14:39:23;5.70;24.50
32348;DHT22;18821;44.800;10.326;2023-03-01T14:41:51;5.70;25.40
32348;DHT22;18821;44.800;10.326;2023-03-01T14:44:23;5.80;23.90
32348;DHT22;18821;44.800;10.326;2023-03-01T14:46:54;5.80;26.10
32348;DHT22;18821;44.800;10.326;2023-03-01T14:49:24;5.90;26.80
32348;DHT22;18821;44.800;10.326;2023-03-01T14:52:02;6.00;26.30
32348;DHT22;18821;44.800;10.326;2023-03-01T14:54:43;6.00;27.60
32348;DHT22;18821;44.800;10.326;2023-03-01T14:57:19;6.00;24.50
32348;DHT22;18821;44.800;10.326;2023-03-01T14:59:45;5.90;23.60
32348;DHT22;18821;44.800;10.326;2023-03-01T15:02:18;5.90;22.40
32348;DHT22;18821;44.800;10.326;2023-03-01T15:04:48;5.80;25.90
32348;DHT22;18821;44.800;10.326;2023-03-01T15:07:15;5.80;27.60
32348;DHT22;18821;44.800;10.326;2023-03-01T15:09:42;5.80;25.90
32348;DHT22;18821;44.800;10.326;2023-03-01T15:14:53;5.70;33.50
32348;DHT22;18821;44.800;10.326;2023-03-01T15:17:33;5.70;38.30
32348;DHT22;18821;44.800;10.326;2023-03-01T15:20:02;5.50;31.50
32348;DHT22;18821;44.800;10.326;2023-03-01T15:22:30;5.50;33.20
32348;DHT22;18821;44.800;10.326;2023-03-01T15:24:56;5.40;35.90
32348;DHT22;18821;44.800;10.326;2023-03-01T15:27:24;5.40;46.00
32348;DHT22;18821;44.800;10.326;2023-03-01T15:29:54;5.40;49.10
32348;DHT22;18821;44.800;10.326;2023-03-01T15:34:52;5.50;47.10
32348;DHT22;18821;44.800;10.326;2023-03-01T15:37:38;5.40;45.90
32348;DHT22;18821;44.800;10.326;2023-03-01T15:43:01;5.30;47.70
32348;DHT22;18821;44.800;10.326;2023-03-01T15:45:30;5.40;48.50
32348;DHT22;18821;44.800;10.326;2023-03-01T15:48:04;5.40;46.70
32348;DHT22;18821;44.800;10.326;2023-03-01T15:50:33;5.30;45.20
32348;DHT22;18821;44.800;10.326;2023-03-01T15:53:04;5.30;48.50
32348;DHT22;18821;44.800;10.326;2023-03-01T15:55:32;5.20;48.20
32348;DHT22;18821;44.800;10.326;2023-03-01T15:58:01;5.10;48.70
32348;DHT22;18821;44.800;10.326;2023-03-01T16:00:28;5.20;58.90
32348;DHT22;18821;44.800;10.326;2023-03-01T16:02:55;5.20;62.90
32348;DHT22;18821;44.800;10.326;2023-03-01T16:05:27;5.20;62.80
32348;DHT22;18821;44.800;10.326;2023-03-01T16:07:53;5.20;65.20
32348;DHT22;18821;44.800;10.326;2023-03-01T16:10:20;5.20;62.40
32348;DHT22;18821;44.800;10.326;2023-03-01T16:12:46;5.20;62.80
32348;DHT22;18821;44.800;10.326;2023-03-01T16:15:26;5.30;63.30
32348;DHT22;18821;44.800;10.326;2023-03-01T16:17:53;5.20;60.50
32348;DHT22;18821;44.800;10.326;2023-03-01T16:20:22;5.20;60.00
32348;DHT22;18821;44.800;10.326;2023-03-01T16:22:48;5.20;58.90
32348;DHT22;18821;44.800;10.326;2023-03-01T16:25:16;5.20;63.90
32348;DHT22;18821;44.800;10.326;2023-03-01T16:27:45;5.20;68.50
32348;DHT22;18821;44.800;10.326;2023-03-01T16:30:13;5.10;69.70
32348;DHT22;18821;44.800;10.326;2023-03-01T16:32:44;5.10;75.10
32348;DHT22;18821;44.800;10.326;2023-03-01T16:35:12;5.20;77.00
32348;DHT22;18821;44.800;10.326;2023-03-01T16:37:39;5.20;76.30
32348;DHT22;18821;44.800;10.326;2023-03-01T16:40:15;5.20;71.60
32348;DHT22;18821;44.800;10.326;2023-03-01T16:42:42;5.20;68.50
32348;DHT22;18821;44.800;10.326;2023-03-01T16:45:08;5.10;68.60
32348;DHT22;18821;44.800;10.326;2023-03-01T16:47:35;5.10;66.40
32348;DHT22;18821;44.800;10.326;2023-03-01T16:50:01;5.00;64.40
32348;DHT22;18821;44.800;10.326;2023-03-01T16:52:27;5.00;65.70
32348;DHT22;18821;44.800;10.326;2023-03-01T16:54:53;5.00;66.60
32348;DHT22;18821;44.800;10.326;2023-03-01T16:57:19;4.90;63.90
32348;DHT22;18821;44.800;10.326;2023-03-01T16:59:45;4.90;65.00
32348;DHT22;18821;44.800;10.326;2023-03-01T17:02:14;4.90;68.10
32348;DHT22;18821;44.800;10.326;2023-03-01T17:04:44;4.90;69.50
32348;DHT22;18821;44.800;10.326;2023-03-01T17:07:10;4.90;66.20
32348;DHT22;18821;44.800;10.326;2023-03-01T17:09:37;4.80;64.80
32348;DHT22;18821;44.800;10.326;2023-03-01T17:12:04;4.80;65.60
32348;DHT22;18821;44.800;10.326;2023-03-01T17:14:30;4.80;63.10
32348;DHT22;18821;44.800;10.326;2023-03-01T17:16:56;4.80;63.00
32348;DHT22;18821;44.800;10.326;2023-03-01T17:19:22;4.80;63.10
32348;DHT22;18821;44.800;10.326;2023-03-01T17:21:48;4.80;62.20
32348;DHT22;18821;44.800;10.326;2023-03-01T17:24:14;4.70;58.60
32348;DHT22;18821;44.800;10.326;2023-03-01T17:26:40;4.70;56.30
32348;DHT22;18821;44.800;10.326;2023-03-01T17:29:06;4.60;55.30
32348;DHT22;18821;44.800;10.326;2023-03-01T17:31:33;4.60;54.80
32348;DHT22;18821;44.800;10.326;2023-03-01T17:33:59;4.60;56.40
32348;DHT22;18821;44.800;10.326;2023-03-01T17:36:26;4.50;57.70
32348;DHT22;18821;44.800;10.326;2023-03-01T17:38:53;4.50;58.20
32348;DHT22;18821;44.800;10.326;2023-03-01T17:41:19;4.50;62.90
32348;DHT22;18821;44.800;10.326;2023-03-01T17:43:47;4.50;64.70
32348;DHT22;18821;44.800;10.326;2023-03-01T17:46:13;4.50;65.40
32348;DHT22;18821;44.800;10.326;2023-03-01T17:48:39;4.50;65.00
32348;DHT22;18821;44.800;10.326;2023-03-01T17:51:10;4.50;63.30
32348;DHT22;18821;44.800;10.326;2023-03-01T17:53:36;4.40;64.20
32348;DHT22;18821;44.800;10.326;2023-03-01T17:56:04;4.40;65.90